Time;durP1;ratioP1;P1;durP2;ratioP2;P2;SDS_P1;SDS_P2;PMS_P1;PMS_P2;Temp;Humidity;BMP_temperature;BMP_pressure;BME280_temperature;BME280_humidity;BME280_pressure;Samples;Min_cycle;Max_cycle;Signal;HPM_P1;HPM_P2
2022/05/26 00:01:51;;;;;;;;;;;;;;;;;;4993697;28;19984;-79
2022/05/26 00:04:17;;;;;;;;;;;;;;;;;;4992740;28;19917;-79
2022/05/26 00:06:43;;;;;;;;;;;;;;;;;;4993627;28;19977;-78
2022/05/26 00:09:09;;;;;;;;;;;;;;;;;;4993453;28;19928;-79
2022/05/26 00:11:35;;;;;;;;;;;;;;;;;;4992980;28;20016;-78
2022/05/26 00:14:07;;;;;;;;;;;;;;;;;;4993354;28;19996;-79
2022/05/26 00:16:33;;;;;;;;;;;;;;;;;;4993979;28;19922;-79
2022/05/26 00:18:59;;;;;;;;;;;;;;;;;;4993323;28;19922;-78
2022/05/26 00:21:25;;;;;;;;;;;;;;;;;;4993258;28;20377;-80
2022/05/26 00:23:51;;;;;;;;;;;;;;;;;;4993224;28;19989;-79
2022/05/26 00:26:17;;;;;;;;;;;;;;;;;;4992872;28;19922;-77
2022/05/26 00:28:43;;;;;;;;;;;;;;;;;;4993304;28;20012;-79
2022/05/26 00:31:09;;;;;;;;;;;;;;;;;;4992785;28;19969;-78
2022/05/26 00:33:35;;;;;;;;;;;;;;;;;;4993435;28;19929;-79
2022/05/26 00:36:01;;;;;;;;;;;;;;;;;;4976008;28;19922;-78
2022/05/26 00:38:27;;;;;;;;;;;;;;;;;;4993226;28;19922;-79
2022/05/26 00:40:53;;;;;;;;;;;;;;;;;;4993029;28;19972;-79
2022/05/26 00:43:21;;;;;;;;;;;;;;;;;;4992739;28;19977;-79
2022/05/26 00:45:47;;;;;;;;;;;;;;;;;;4975656;28;19922;-79
2022/05/26 00:48:13;;;;;;;;;;;;;;;;;;4991430;28;20332;-78
2022/05/26 00:50:40;;;;;;;;;;;;;;;;;;4975446;28;19945;-79
2022/05/26 00:53:06;;;;;;;;;;;;;;;;;;4992728;28;19997;-78
2022/05/26 00:55:32;;;;;;;;;;;;;;;;;;4993368;28;20020;-79
2022/05/26 00:57:58;;;;;;;;;;;;;;;;;;4993321;28;20269;-79
2022/05/26 01:00:23;;;;;;;;;;;;;;;;;;4992439;28;20009;-79
2022/05/26 01:02:49;;;;;;;;;;;;;;;;;;4993257;28;19992;-79
2022/05/26 01:05:15;;;;;;;;;;;;;;;;;;4992992;28;20379;-79
2022/05/26 01:07:41;;;;;;;;;;;;;;;;;;4993189;28;20284;-78
2022/05/26 01:10:07;;;;;;;;;;;;;;;;;;4992158;28;19949;-77
2022/05/26 01:12:33;;;;;;;;;;;;;;;;;;4993352;28;19922;-78
2022/05/26 01:14:59;;;;;;;;;;;;;;;;;;4994503;28;19925;-79
2022/05/26 01:17:25;;;;;;;;;;;;;;;;;;4996701;28;19953;-79
2022/05/26 01:19:51;;;;;;;;;;;;;;;;;;4996321;28;20534;-78
2022/05/26 01:22:17;;;;;;;;;;;;;;;;;;4996398;28;20349;-78
2022/05/26 01:24:45;;;;;;;;;;;;;;;;;;4996803;28;19921;-79
2022/05/26 01:27:11;;;;;;;;;;;;;;;;;;4996357;28;19969;-78
2022/05/26 01:29:37;;;;;;;;;;;;;;;;;;4996512;28;20313;-79
2022/05/26 01:32:03;;;;;;;;;;;;;;;;;;4995645;28;20435;-79
2022/05/26 01:34:29;;;;;;;;;;;;;;;;;;4996268;28;19921;-79
2022/05/26 01:36:55;;;;;;;;;;;;;;;;;;4996570;28;19925;-79
2022/05/26 01:39:21;;;;;;;;;;;;;;;;;;4995548;28;19922;-78
2022/05/26 01:41:46;;;;;;;;;;;;;;;;;;4996206;28;19921;-78
2022/05/26 01:44:12;;;;;;;;;;;;;;;;;;4995742;28;20008;-78
2022/05/26 01:46:38;;;;;;;;;;;;;;;;;;4996074;28;19922;-78
2022/05/26 01:49:04;;;;;;;;;;;;;;;;;;4995822;28;20016;-78
2022/05/26 01:51:30;;;;;;;;;;;;;;;;;;4995604;28;19925;-78
2022/05/26 01:53:56;;;;;;;;;;;;;;;;;;4994324;28;19922;-77
2022/05/26 01:56:22;;;;;;;;;;;;;;;;;;4995741;28;19921;-77
2022/05/26 01:58:48;;;;;;;;;;;;;;;;;;4996272;28;19976;-78
2022/05/26 02:01:14;;;;;;;;;;;;;;;;;;4995518;28;20365;-77
2022/05/26 02:03:40;;;;;;;;;;;;;;;;;;4995610;28;20389;-78
2022/05/26 02:06:06;;;;;;;;;;;;;;;;;;4995938;28;20383;-78
2022/05/26 02:08:32;;;;;;;;;;;;;;;;;;4978104;28;19918;-78
2022/05/26 02:10:58;;;;;;;;;;;;;;;;;;4996124;28;19926;-78
2022/05/26 02:13:24;;;;;;;;;;;;;;;;;;4994980;28;19945;-78
2022/05/26 02:15:50;;;;;;;;;;;;;;;;;;4995841;28;19992;-78
2022/05/26 02:18:15;;;;;;;;;;;;;;;;;;4995361;28;19921;-77
2022/05/26 02:20:43;;;;;;;;;;;;;;;;;;4995934;28;19976;-77
2022/05/26 02:23:09;;;;;;;;;;;;;;;;;;4995588;28;20013;-78
2022/05/26 02:25:35;;;;;;;;;;;;;;;;;;4995392;28;20613;-78
2022/05/26 02:28:01;;;;;;;;;;;;;;;;;;4977780;28;20468;-77
2022/05/26 02:30:27;;;;;;;;;;;;;;;;;;4995375;28;20288;-78
2022/05/26 02:32:53;;;;;;;;;;;;;;;;;;4994867;28;19922;-78
2022/05/26 02:35:19;;;;;;;;;;;;;;;;;;4995236;28;19925;-77
2022/05/26 02:37:45;;;;;;;;;;;;;;;;;;4995590;28;20292;-78
2022/05/26 02:40:11;;;;;;;;;;;;;;;;;;4995277;28;20341;-78
2022/05/26 02:42:37;;;;;;;;;;;;;;;;;;4994863;28;20514;-77
2022/05/26 02:45:03;;;;;;;;;;;;;;;;;;4995390;28;20336;-78
2022/05/26 02:47:29;;;;;;;;;;;;;;;;;;4994621;28;20278;-77
2022/05/26 02:49:55;;;;;;;;;;;;;;;;;;4995356;28;20400;-78
2022/05/26 02:52:20;;;;;;;;;;;;;;;;;;4994691;28;19922;-77
2022/05/26 02:54:46;;;;;;;;;;;;;;;;;;4994726;28;20016;-78
2022/05/26 02:57:12;;;;;;;;;;;;;;;;;;4995215;28;19929;-78
2022/05/26 02:59:38;;;;;;;;;;;;;;;;;;4994364;28;19921;-77
2022/05/26 03:02:04;;;;;;;;;;;;;;;;;;4994462;28;19926;-78
2022/05/26 03:04:30;;;;;;;;;;;;;;;;;;4994048;28;19921;-78
2022/05/26 03:06:56;;;;;;;;;;;;;;;;;;4994924;28;19922;-78
2022/05/26 03:09:22;;;;;;;;;;;;;;;;;;4977177;28;19921;-77
2022/05/26 03:11:48;;;;;;;;;;;;;;;;;;4994807;28;19984;-78
2022/05/26 03:14:14;;;;;;;;;;;;;;;;;;4977183;28;19922;-77
2022/05/26 03:16:40;;;;;;;;;;;;;;;;;;4994543;28;20376;-78
2022/05/26 03:19:06;;;;;;;;;;;;;;;;;;4994062;28;19921;-78
2022/05/26 03:21:32;;;;;;;;;;;;;;;;;;4994415;28;19945;-78
2022/05/26 03:23:58;;;;;;;;;;;;;;;;;;4977618;28;20254;-78
2022/05/26 03:26:24;;;;;;;;;;;;;;;;;;4993947;28;19921;-78
2022/05/26 03:28:50;;;;;;;;;;;;;;;;;;4994261;28;20008;-78
2022/05/26 03:31:15;;;;;;;;;;;;;;;;;;4994736;28;20324;-78
2022/05/26 03:41:56;;;;;;;;;;;;;;;;;;4994100;28;19995;-78
2022/05/26 03:44:21;;;;;;;;;;;;;;;;;;4977295;28;19984;-78
2022/05/26 03:46:47;;;;;;;;;;;;;;;;;;4993784;28;19948;-78
2022/05/26 03:49:13;;;;;;;;;;;;;;;;;;4993939;28;20361;-78
2022/05/26 03:51:39;;;;;;;;;;;;;;;;;;4993836;28;19922;-78
2022/05/26 03:54:05;;;;;;;;;;;;;;;;;;4993356;28;19922;-78
2022/05/26 03:56:31;;;;;;;;;;;;;;;;;;4993578;28;20357;-78
2022/05/26 03:58:57;;;;;;;;;;;;;;;;;;4993711;28;20357;-77
2022/05/26 04:01:23;;;;;;;;;;;;;;;;;;4994113;28;20008;-78
2022/05/26 04:03:49;;;;;;;;;;;;;;;;;;4992760;28;20353;-78
2022/05/26 04:06:16;;;;;;;;;;;;;;;;;;4993826;28;19948;-79
2022/05/26 04:08:42;;;;;;;;;;;;;;;;;;4993278;28;19922;-79
2022/05/26 04:11:07;;;;;;;;;;;;;;;;;;4994075;28;20390;-79
2022/05/26 04:13:34;;;;;;;;;;;;;;;;;;4993220;28;19953;-78
2022/05/26 04:16:00;;;;;;;;;;;;;;;;;;4993791;28;19944;-78
2022/05/26 04:18:26;;;;;;;;;;;;;;;;;;4993528;28;20361;-79
2022/05/26 04:20:52;;;;;;;;;;;;;;;;;;4993301;28;19922;-78
2022/05/26 04:23:18;;;;;;;;;;;;;;;;;;4993895;28;19961;-78
2022/05/26 04:25:44;;;;;;;;;;;;;;;;;;4993070;28;19921;-78
2022/05/26 04:28:10;;;;;;;;;;;;;;;;;;4993506;28;20019;-78
2022/05/26 04:30:36;;;;;;;;;;;;;;;;;;4993456;28;19922;-78
2022/05/26 04:33:01;;;;;;;;;;;;;;;;;;4993674;28;20409;-78
2022/05/26 04:35:27;;;;;;;;;;;;;;;;;;4993363;28;20020;-78
2022/05/26 04:37:53;;;;;;;;;;;;;;;;;;4992821;28;19968;-78
2022/05/26 04:40:19;;;;;;;;;;;;;;;;;;4993181;28;20288;-78
2022/05/26 04:42:45;;;;;;;;;;;;;;;;;;4993031;28;19922;-78
2022/05/26 04:45:11;;;;;;;;;;;;;;;;;;4993075;28;19921;-78
2022/05/26 04:47:37;;;;;;;;;;;;;;;;;;4992966;28;19921;-78
2022/05/26 04:50:03;;;;;;;;;;;;;;;;;;4994216;28;19921;-79
2022/05/26 04:52:29;;;;;;;;;;;;;;;;;;4997519;28;20373;-78
2022/05/26 04:54:55;;;;;;;;;;;;;;;;;;4996959;28;19932;-78
2022/05/26 04:57:21;;;;;;;;;;;;;;;;;;4997563;28;19922;-78
2022/05/26 04:59:47;;;;;;;;;;;;;;;;;;4996664;28;20273;-78
2022/05/26 05:02:13;;;;;;;;;;;;;;;;;;4997218;28;20281;-78
2022/05/26 05:04:39;;;;;;;;;;;;;;;;;;4996831;28;19979;-78
2022/05/26 05:07:05;;;;;;;;;;;;;;;;;;4996698;28;19926;-78
2022/05/26 05:09:31;;;;;;;;;;;;;;;;;;4996697;28;20258;-78
2022/05/26 05:11:57;;;;;;;;;;;;;;;;;;4996682;28;19922;-78
2022/05/26 05:14:23;;;;;;;;;;;;;;;;;;4997084;28;19929;-79
2022/05/26 05:16:49;;;;;;;;;;;;;;;;;;4995835;28;19969;-78
2022/05/26 05:19:15;;;;;;;;;;;;;;;;;;4996209;28;19925;-78
2022/05/26 05:21:41;;;;;;;;;;;;;;;;;;4996114;28;20274;-78
2022/05/26 05:24:07;;;;;;;;;;;;;;;;;;4996903;28;19922;-82
2022/05/26 05:26:34;;;;;;;;;;;;;;;;;;4979707;28;19922;-81
2022/05/26 05:29:00;;;;;;;;;;;;;;;;;;4979117;28;19921;-81
2022/05/26 05:31:26;;;;;;;;;;;;;;;;;;4996453;28;19921;-81
2022/05/26 05:33:52;;;;;;;;;;;;;;;;;;4979065;28;19922;-80
2022/05/26 05:36:18;;;;;;;;;;;;;;;;;;4996811;28;20442;-79
2022/05/26 05:38:44;;;;;;;;;;;;;;;;;;4996363;28;20428;-77
2022/05/26 05:41:09;;;;;;;;;;;;;;;;;;4995976;28;19929;-78
2022/05/26 05:43:35;;;;;;;;;;;;;;;;;;4996040;28;20361;-78
2022/05/26 05:46:01;;;;;;;;;;;;;;;;;;4995641;28;19922;-82
2022/05/26 05:48:27;;;;;;;;;;;;;;;;;;4979307;28;19922;-79
2022/05/26 05:50:53;;;;;;;;;;;;;;;;;;4996135;28;19975;-85
2022/05/26 05:53:19;;;;;;;;;;;;;;;;;;4995959;28;19929;-79
2022/05/26 05:55:45;;;;;;;;;;;;;;;;;;4962464;28;19932;-79
2022/05/26 05:58:11;;;;;;;;;;;;;;;;;;4996450;28;19921;-80
2022/05/26 06:00:37;;;;;;;;;;;;;;;;;;4979139;28;19922;-77
2022/05/26 06:03:03;;;;;;;;;;;;;;;;;;4994146;28;19929;-78
2022/05/26 06:05:29;;;;;;;;;;;;;;;;;;4995260;28;19976;-78
2022/05/26 06:07:55;;;;;;;;;;;;;;;;;;4995407;28;19929;-77
2022/05/26 06:10:21;;;;;;;;;;;;;;;;;;4995778;28;19922;-80
2022/05/26 06:12:47;;;;;;;;;;;;;;;;;;4994879;28;19922;-79
2022/05/26 06:15:13;;;;;;;;;;;;;;;;;;4995294;28;19921;-77
2022/05/26 06:17:39;;;;;;;;;;;;;;;;;;4995693;28;19922;-77
2022/05/26 06:20:05;;;;;;;;;;;;;;;;;;4994593;28;19926;-78
2022/05/26 06:22:32;;;;;;;;;;;;;;;;;;4995537;28;19929;-78
2022/05/26 06:24:58;;;;;;;;;;;;;;;;;;4978302;28;19929;-78
2022/05/26 06:30:08;;;;;;;;;;;;;;;;;;4995573;28;19976;-76
2022/05/26 06:38:03;;;;;;;;;;;;;;;;;;4995023;28;20259;-77
2022/05/26 06:40:31;;;;;;;;;;;;;;;;;;4978001;28;19968;-77
2022/05/26 06:42:57;;;;;;;;;;;;;;;;;;4994620;28;20395;-76
2022/05/26 06:45:23;;;;;;;;;;;;;;;;;;4995116;28;20515;-76
2022/05/26 06:47:49;;;;;;;;;;;;;;;;;;4994104;28;20361;-76
2022/05/26 06:50:15;;;;;;;;;;;;;;;;;;4993930;28;19926;-76
2022/05/26 06:52:41;;;;;;;;;;;;;;;;;;4995131;28;19922;-77
2022/05/26 06:55:07;;;;;;;;;;;;;;;;;;4994967;28;20061;-76
2022/05/26 06:57:33;;;;;;;;;;;;;;;;;;4994895;28;19979;-77
2022/05/26 07:00:00;;;;;;;;;;;;;;;;;;4994550;28;19921;-77
2022/05/26 07:02:26;;;;;;;;;;;;;;;;;;4994905;28;19989;-76
2022/05/26 07:04:52;;;;;;;;;;;;;;;;;;4994396;28;20377;-77
2022/05/26 07:07:18;;;;;;;;;;;;;;;;;;4994936;28;19929;-77
2022/05/26 07:09:44;;;;;;;;;;;;;;;;;;4994639;28;20008;-77
2022/05/26 07:12:10;;;;;;;;;;;;;;;;;;4994614;28;19918;-77
2022/05/26 07:14:35;;;;;;;;;;;;;;;;;;4994431;28;19922;-76
2022/05/26 07:17:01;;;;;;;;;;;;;;;;;;4994336;28;20444;-76
2022/05/26 07:19:27;;;;;;;;;;;;;;;;;;4994754;28;19976;-76
2022/05/26 07:21:53;;;;;;;;;;;;;;;;;;4994552;28;19925;-77
2022/05/26 07:24:19;;;;;;;;;;;;;;;;;;4994468;28;19921;-79
2022/05/26 07:26:45;;;;;;;;;;;;;;;;;;4976974;28;19929;-79
2022/05/26 07:29:11;;;;;;;;;;;;;;;;;;4994239;28;20470;-77
2022/05/26 07:31:38;;;;;;;;;;;;;;;;;;4994241;28;20015;-77
2022/05/26 07:34:03;;;;;;;;;;;;;;;;;;4994059;28;19925;-79
2022/05/26 07:41:59;;;;;;;;;;;;;;;;;;4993626;28;19921;-77
2022/05/26 07:44:24;;;;;;;;;;;;;;;;;;4994323;28;20298;-78
2022/05/26 07:46:50;;;;;;;;;;;;;;;;;;4994233;28;19921;-79
2022/05/26 07:49:16;;;;;;;;;;;;;;;;;;4993462;28;20002;-79
2022/05/26 07:51:43;;;;;;;;;;;;;;;;;;4976908;28;19925;-80
2022/05/26 07:54:09;;;;;;;;;;;;;;;;;;4976572;28;19921;-80
2022/05/26 07:56:36;;;;;;;;;;;;;;;;;;4994146;28;19932;-80
2022/05/26 07:59:02;;;;;;;;;;;;;;;;;;4975989;28;20407;-79
2022/05/26 08:01:28;;;;;;;;;;;;;;;;;;4993901;28;19973;-80
2022/05/26 08:03:55;;;;;;;;;;;;;;;;;;4994254;28;19922;-76
2022/05/26 08:06:21;;;;;;;;;;;;;;;;;;4993897;28;19921;-79
2022/05/26 08:08:47;;;;;;;;;;;;;;;;;;4976485;28;20012;-79
2022/05/26 08:11:13;;;;;;;;;;;;;;;;;;4993234;28;19968;-78
2022/05/26 08:13:39;;;;;;;;;;;;;;;;;;4993869;28;19976;-78
2022/05/26 08:16:05;;;;;;;;;;;;;;;;;;4993539;28;19925;-78
2022/05/26 08:18:31;;;;;;;;;;;;;;;;;;4993502;28;20009;-78
2022/05/26 08:20:57;;;;;;;;;;;;;;;;;;4993739;28;19924;-77
2022/05/26 08:23:25;;;;;;;;;;;;;;;;;;4992910;28;19929;-82
2022/05/26 08:25:51;;;;;;;;;;;;;;;;;;4992960;28;19944;-83
2022/05/26 08:28:17;;;;;;;;;;;;;;;;;;4975328;28;19970;-82
2022/05/26 08:30:43;;;;;;;;;;;;;;;;;;4993828;28;20384;-82
2022/05/26 08:33:09;;;;;;;;;;;;;;;;;;4976187;28;20369;-81
2022/05/26 08:35:36;;;;;;;;;;;;;;;;;;4993848;28;19926;-81
2022/05/26 08:38:02;;;;;;;;;;;;;;;;;;4993611;28;19969;-79
2022/05/26 08:40:28;;;;;;;;;;;;;;;;;;4993484;28;20028;-81
2022/05/26 08:42:54;;;;;;;;;;;;;;;;;;4993569;28;20266;-81
2022/05/26 08:45:20;;;;;;;;;;;;;;;;;;4993338;28;19930;-81
2022/05/26 08:47:46;;;;;;;;;;;;;;;;;;4993421;28;19921;-83
2022/05/26 08:50:13;;;;;;;;;;;;;;;;;;4993324;28;19945;-82
2022/05/26 08:52:39;;;;;;;;;;;;;;;;;;4992860;28;20384;-82
2022/05/26 08:55:05;;;;;;;;;;;;;;;;;;4992661;28;19925;-80
2022/05/26 08:57:31;;;;;;;;;;;;;;;;;;4993719;28;20016;-83
2022/05/26 08:59:57;;;;;;;;;;;;;;;;;;4976310;28;19922;-81
2022/05/26 09:02:23;;;;;;;;;;;;;;;;;;4976253;28;19961;-80
2022/05/26 09:04:49;;;;;;;;;;;;;;;;;;4976237;28;19922;-83
2022/05/26 09:12:56;;;;;;;;;;;;;;;;;;4992851;28;20365;-80
2022/05/26 09:15:22;;;;;;;;;;;;;;;;;;4993167;28;19922;-80
2022/05/26 09:17:48;;;;;;;;;;;;;;;;;;4993720;28;19922;-81
2022/05/26 09:20:13;;;;;;;;;;;;;;;;;;4992281;28;19980;-80
2022/05/26 09:22:39;;;;;;;;;;;;;;;;;;4991339;28;19922;-80
2022/05/26 09:25:05;;;;;;;;;;;;;;;;;;4991225;28;19925;-78
2022/05/26 09:27:34;;;;;;;;;;;;;;;;;;4992294;28;19921;-81
2022/05/26 09:30:00;;;;;;;;;;;;;;;;;;4992317;28;19922;-81
2022/05/26 09:32:26;;;;;;;;;;;;;;;;;;4957797;28;20469;-80
2022/05/26 09:34:52;;;;;;;;;;;;;;;;;;4991356;28;19921;-80
2022/05/26 09:37:18;;;;;;;;;;;;;;;;;;4992579;28;19922;-80
2022/05/26 09:39:44;;;;;;;;;;;;;;;;;;4994871;28;19922;-81
2022/05/26 09:42:10;;;;;;;;;;;;;;;;;;4995152;28;19969;-80
2022/05/26 09:44:36;;;;;;;;;;;;;;;;;;4994395;28;19929;-81
2022/05/26 09:47:02;;;;;;;;;;;;;;;;;;4994796;28;19922;-82
2022/05/26 09:49:31;;;;;;;;;;;;;;;;;;4994871;28;19922;-82
2022/05/26 09:51:57;;;;;;;;;;;;;;;;;;4993713;28;20288;-81
2022/05/26 09:54:23;;;;;;;;;;;;;;;;;;4975776;28;19922;-80
2022/05/26 09:56:49;;;;;;;;;;;;;;;;;;4993221;28;20388;-82
2022/05/26 09:59:15;;;;;;;;;;;;;;;;;;4994184;28;19926;-81
2022/05/26 10:01:43;;;;;;;;;;;;;;;;;;4996023;28;20012;-82
2022/05/26 10:04:09;;;;;;;;;;;;;;;;;;4995780;28;19928;-81
2022/05/26 10:06:35;;;;;;;;;;;;;;;;;;4996545;28;19926;-82
2022/05/26 10:09:01;;;;;;;;;;;;;;;;;;4994794;28;19968;-81
2022/05/26 10:11:27;;;;;;;;;;;;;;;;;;4995854;28;19921;-82
2022/05/26 10:13:53;;;;;;;;;;;;;;;;;;4977329;28;19922;-82
2022/05/26 10:16:19;;;;;;;;;;;;;;;;;;4995082;28;20086;-81
2022/05/26 10:18:45;;;;;;;;;;;;;;;;;;4994151;28;19926;-81
2022/05/26 10:21:11;;;;;;;;;;;;;;;;;;4994894;28;19922;-81
2022/05/26 10:23:36;;;;;;;;;;;;;;;;;;4975440;28;20001;-80
2022/05/26 10:26:02;;;;;;;;;;;;;;;;;;4994518;28;20365;-80
2022/05/26 10:28:31;;;;;;;;;;;;;;;;;;4993539;28;20436;-80
2022/05/26 10:30:57;;;;;;;;;;;;;;;;;;4994051;28;19985;-81
2022/05/26 10:33:23;;;;;;;;;;;;;;;;;;4993411;28;20470;-80
2022/05/26 10:35:49;;;;;;;;;;;;;;;;;;4994000;28;20281;-79
2022/05/26 10:38:15;;;;;;;;;;;;;;;;;;4995653;28;20376;-80
2022/05/26 10:40:41;;;;;;;;;;;;;;;;;;4994201;28;19929;-80
2022/05/26 10:43:07;;;;;;;;;;;;;;;;;;4977119;28;19922;-79
2022/05/26 10:45:33;;;;;;;;;;;;;;;;;;4976562;28;19980;-79
2022/05/26 10:47:59;;;;;;;;;;;;;;;;;;4993951;28;19944;-79
2022/05/26 10:50:25;;;;;;;;;;;;;;;;;;4994185;28;19980;-81
2022/05/26 10:52:51;;;;;;;;;;;;;;;;;;4994480;28;19922;-80
2022/05/26 10:55:17;;;;;;;;;;;;;;;;;;4993433;28;19922;-80
2022/05/26 10:57:43;;;;;;;;;;;;;;;;;;4975743;28;19926;-80
2022/05/26 11:00:09;;;;;;;;;;;;;;;;;;4994144;28;19922;-79
2022/05/26 11:02:34;;;;;;;;;;;;;;;;;;4993598;28;19922;-76
2022/05/26 11:05:01;;;;;;;;;;;;;;;;;;4993408;28;19930;-80
2022/05/26 11:07:27;;;;;;;;;;;;;;;;;;4993913;28;20350;-80
2022/05/26 11:09:53;;;;;;;;;;;;;;;;;;4993399;28;19928;-80
2022/05/26 11:12:19;;;;;;;;;;;;;;;;;;4994474;28;19922;-78
2022/05/26 11:17:30;;;;;;;;;;;;;;;;;;4993529;28;19922;-80
2022/05/26 11:19:55;;;;;;;;;;;;;;;;;;4994603;28;20388;-80
2022/05/26 11:22:22;;;;;;;;;;;;;;;;;;4976727;28;20384;-80
2022/05/26 11:24:48;;;;;;;;;;;;;;;;;;4994014;28;19921;-79
2022/05/26 11:27:14;;;;;;;;;;;;;;;;;;4994429;28;20380;-79
2022/05/26 11:29:40;;;;;;;;;;;;;;;;;;4993310;28;19988;-79
2022/05/26 11:37:40;;;;;;;;;;;;;;;;;;4993282;28;20009;-80
2022/05/26 11:40:06;;;;;;;;;;;;;;;;;;4994056;28;20016;-79
2022/05/26 11:42:32;;;;;;;;;;;;;;;;;;4993657;28;19922;-79
2022/05/26 11:44:58;;;;;;;;;;;;;;;;;;4993934;28;19928;-80
2022/05/26 11:47:24;;;;;;;;;;;;;;;;;;4993200;28;20012;-79
2022/05/26 11:49:51;;;;;;;;;;;;;;;;;;4993355;28;20460;-80
2022/05/26 11:52:17;;;;;;;;;;;;;;;;;;4993141;28;19929;-79
2022/05/26 11:54:43;;;;;;;;;;;;;;;;;;4993323;28;19918;-80
2022/05/26 11:57:09;;;;;;;;;;;;;;;;;;4993932;28;19922;-82
2022/05/26 11:59:35;;;;;;;;;;;;;;;;;;4975289;28;20037;-79
2022/05/26 12:02:01;;;;;;;;;;;;;;;;;;4992584;28;20075;-81
2022/05/26 12:04:27;;;;;;;;;;;;;;;;;;4992824;28;20377;-79
2022/05/26 12:06:53;;;;;;;;;;;;;;;;;;4992801;28;19965;-84
2022/05/26 12:09:19;;;;;;;;;;;;;;;;;;4974221;28;19976;-80
2022/05/26 12:11:45;;;;;;;;;;;;;;;;;;4992164;28;19976;-80
2022/05/26 12:14:10;;;;;;;;;;;;;;;;;;4992912;28;19922;-79
2022/05/26 12:16:36;;;;;;;;;;;;;;;;;;4991361;28;19922;-79
2022/05/26 12:19:04;;;;;;;;;;;;;;;;;;4974877;28;20273;-80
2022/05/26 12:21:30;;;;;;;;;;;;;;;;;;4992641;28;20024;-77
2022/05/26 12:23:56;;;;;;;;;;;;;;;;;;4993098;28;19984;-78
2022/05/26 12:26:22;;;;;;;;;;;;;;;;;;4993951;28;19922;-80
2022/05/26 12:28:47;;;;;;;;;;;;;;;;;;4993297;28;19921;-77
2022/05/26 12:31:14;;;;;;;;;;;;;;;;;;4993681;28;19930;-77
2022/05/26 12:33:39;;;;;;;;;;;;;;;;;;4993320;28;19921;-76
2022/05/26 12:36:05;;;;;;;;;;;;;;;;;;4993887;28;19926;-77
2022/05/26 12:38:32;;;;;;;;;;;;;;;;;;4993237;28;20349;-76
2022/05/26 12:40:58;;;;;;;;;;;;;;;;;;4993007;28;19922;-75
2022/05/26 12:43:24;;;;;;;;;;;;;;;;;;4993621;28;19929;-80
2022/05/26 12:45:50;;;;;;;;;;;;;;;;;;4993177;28;19996;-76
2022/05/26 12:48:16;;;;;;;;;;;;;;;;;;4992926;28;20400;-77
2022/05/26 12:50:42;;;;;;;;;;;;;;;;;;4992808;28;19922;-77
2022/05/26 12:53:08;;;;;;;;;;;;;;;;;;4993572;28;19933;-77
2022/05/26 12:55:34;;;;;;;;;;;;;;;;;;4993321;28;19921;-76
2022/05/26 12:58:00;;;;;;;;;;;;;;;;;;4993633;28;19965;-77
2022/05/26 13:00:26;;;;;;;;;;;;;;;;;;4993162;28;19922;-77
2022/05/26 13:02:53;;;;;;;;;;;;;;;;;;4992783;28;20008;-76
2022/05/26 13:05:19;;;;;;;;;;;;;;;;;;4993163;28;19921;-76
2022/05/26 13:07:45;;;;;;;;;;;;;;;;;;4992824;28;19925;-76
2022/05/26 13:10:11;;;;;;;;;;;;;;;;;;4993031;28;19929;-76
2022/05/26 13:12:37;;;;;;;;;;;;;;;;;;4978385;28;19921;-79
2022/05/26 13:15:03;;;;;;;;;;;;;;;;;;4997295;28;20400;-79
2022/05/26 13:17:29;;;;;;;;;;;;;;;;;;4997106;28;19929;-80
2022/05/26 13:19:55;;;;;;;;;;;;;;;;;;4995918;28;19986;-79
2022/05/26 13:22:21;;;;;;;;;;;;;;;;;;4996329;28;19969;-78
2022/05/26 13:24:47;;;;;;;;;;;;;;;;;;4996753;28;19922;-77
2022/05/26 13:27:13;;;;;;;;;;;;;;;;;;4996816;28;19976;-76
2022/05/26 13:29:38;;;;;;;;;;;;;;;;;;4995448;28;19929;-76
2022/05/26 13:34:49;;;;;;;;;;;;;;;;;;4996235;28;19948;-77
2022/05/26 13:37:15;;;;;;;;;;;;;;;;;;4996890;28;19926;-76
2022/05/26 13:39:41;;;;;;;;;;;;;;;;;;4996059;28;19929;-76
2022/05/26 13:42:07;;;;;;;;;;;;;;;;;;4996444;28;19921;-76
2022/05/26 13:44:34;;;;;;;;;;;;;;;;;;4996738;28;19957;-77
2022/05/26 13:47:02;;;;;;;;;;;;;;;;;;4996174;28;19976;-77
2022/05/26 13:49:29;;;;;;;;;;;;;;;;;;4979057;28;19922;-77
2022/05/26 13:51:55;;;;;;;;;;;;;;;;;;4995743;28;20385;-76
2022/05/26 13:54:21;;;;;;;;;;;;;;;;;;4996256;28;19928;-76
2022/05/26 13:56:47;;;;;;;;;;;;;;;;;;4995895;28;19976;-76
2022/05/26 13:59:13;;;;;;;;;;;;;;;;;;4995852;28;20016;-76
2022/05/26 14:01:40;;;;;;;;;;;;;;;;;;4995951;28;19925;-76
2022/05/26 14:04:06;;;;;;;;;;;;;;;;;;4996526;28;19928;-77
2022/05/26 14:06:32;;;;;;;;;;;;;;;;;;4996042;28;19922;-77
2022/05/26 14:08:58;;;;;;;;;;;;;;;;;;4995717;28;19969;-76
2022/05/26 14:11:24;;;;;;;;;;;;;;;;;;4996305;28;19965;-76
2022/05/26 14:13:50;;;;;;;;;;;;;;;;;;4995783;28;19922;-76
2022/05/26 14:16:16;;;;;;;;;;;;;;;;;;4978199;28;19926;-77
2022/05/26 14:18:42;;;;;;;;;;;;;;;;;;4995599;28;19925;-75
2022/05/26 14:21:09;;;;;;;;;;;;;;;;;;4995557;28;19928;-81
2022/05/26 14:23:35;;;;;;;;;;;;;;;;;;4994834;28;20297;-80
2022/05/26 14:26:01;;;;;;;;;;;;;;;;;;4995395;28;19987;-80
2022/05/26 14:28:27;;;;;;;;;;;;;;;;;;4996131;28;19926;-76
2022/05/26 14:30:54;;;;;;;;;;;;;;;;;;4994923;28;19922;-82
2022/05/26 14:33:21;;;;;;;;;;;;;;;;;;4978314;28;19948;-83
2022/05/26 14:35:47;;;;;;;;;;;;;;;;;;4978718;28;19995;-80
2022/05/26 14:38:13;;;;;;;;;;;;;;;;;;4995419;28;19922;-81
2022/05/26 14:40:39;;;;;;;;;;;;;;;;;;4994825;28;20392;-77
2022/05/26 14:43:05;;;;;;;;;;;;;;;;;;4993933;28;20545;-77
2022/05/26 14:45:31;;;;;;;;;;;;;;;;;;4995217;28;19925;-78
2022/05/26 14:47:58;;;;;;;;;;;;;;;;;;4994244;28;19928;-77
2022/05/26 14:50:24;;;;;;;;;;;;;;;;;;4994570;28;20288;-76
2022/05/26 14:52:50;;;;;;;;;;;;;;;;;;4977420;28;20017;-75
2022/05/26 14:55:28;;;;;;;;;;;;;;;;;;4994682;28;19969;-76
2022/05/26 14:57:54;;;;;;;;;;;;;;;;;;4993884;28;19925;-76
2022/05/26 15:00:20;;;;;;;;;;;;;;;;;;4994360;28;20300;-77
2022/05/26 15:02:46;;;;;;;;;;;;;;;;;;4994283;28;19922;-77
2022/05/26 15:05:12;;;;;;;;;;;;;;;;;;4994759;28;19922;-76
2022/05/26 15:07:38;;;;;;;;;;;;;;;;;;4994529;28;19921;-77
2022/05/26 15:10:04;;;;;;;;;;;;;;;;;;4994135;28;19921;-79
2022/05/26 15:12:30;;;;;;;;;;;;;;;;;;4994636;28;19929;-80
2022/05/26 15:14:56;;;;;;;;;;;;;;;;;;4993996;28;19989;-79
2022/05/26 15:17:22;;;;;;;;;;;;;;;;;;4993981;28;19922;-80
2022/05/26 15:19:48;;;;;;;;;;;;;;;;;;4993821;28;19929;-77
2022/05/26 15:22:14;;;;;;;;;;;;;;;;;;4993937;28;20284;-76
2022/05/26 15:24:40;;;;;;;;;;;;;;;;;;4994164;28;20266;-77
2022/05/26 15:27:06;;;;;;;;;;;;;;;;;;4993588;28;19964;-77
2022/05/26 15:29:32;;;;;;;;;;;;;;;;;;4993866;28;19930;-77
2022/05/26 15:31:58;;;;;;;;;;;;;;;;;;4993151;28;19922;-77
2022/05/26 15:34:24;;;;;;;;;;;;;;;;;;4993891;28;19969;-78
2022/05/26 15:36:52;;;;;;;;;;;;;;;;;;4976287;28;19925;-76
2022/05/26 15:39:18;;;;;;;;;;;;;;;;;;4993854;28;19930;-77
2022/05/26 15:41:45;;;;;;;;;;;;;;;;;;4992651;28;19928;-78
2022/05/26 15:44:10;;;;;;;;;;;;;;;;;;4992737;28;20066;-78
2022/05/26 15:46:37;;;;;;;;;;;;;;;;;;4993492;28;20365;-79
2022/05/26 15:49:03;;;;;;;;;;;;;;;;;;4993384;28;19967;-79
2022/05/26 15:51:29;;;;;;;;;;;;;;;;;;4993137;28;19922;-80
2022/05/26 15:53:55;;;;;;;;;;;;;;;;;;4993418;28;19925;-76
2022/05/26 15:56:22;;;;;;;;;;;;;;;;;;4993406;28;19954;-79
2022/05/26 15:58:48;;;;;;;;;;;;;;;;;;4993082;28;19972;-78
2022/05/26 16:01:14;;;;;;;;;;;;;;;;;;4993173;28;19924;-76
2022/05/26 16:03:40;;;;;;;;;;;;;;;;;;4992852;28;19925;-79
2022/05/26 16:06:06;;;;;;;;;;;;;;;;;;4976095;28;20427;-79
2022/05/26 16:08:32;;;;;;;;;;;;;;;;;;4993650;28;19922;-76
2022/05/26 16:10:58;;;;;;;;;;;;;;;;;;4993149;28;19926;-77
2022/05/26 16:13:24;;;;;;;;;;;;;;;;;;4975577;28;20032;-77
2022/05/26 16:15:50;;;;;;;;;;;;;;;;;;4993171;28;19957;-80
2022/05/26 16:18:16;;;;;;;;;;;;;;;;;;4992416;28;20021;-78
2022/05/26 16:20:42;;;;;;;;;;;;;;;;;;4993633;28;20349;-78
2022/05/26 16:23:08;;;;;;;;;;;;;;;;;;4992897;28;20419;-78
2022/05/26 16:25:34;;;;;;;;;;;;;;;;;;4993403;28;19992;-78
2022/05/26 16:28:00;;;;;;;;;;;;;;;;;;4992119;28;19922;-78
2022/05/26 16:30:26;;;;;;;;;;;;;;;;;;4992448;28;20257;-78
2022/05/26 16:32:56;;;;;;;;;;;;;;;;;;4992629;28;20345;-75
2022/05/26 16:38:07;;;;;;;;;;;;;;;;;;4992601;28;19992;-76
2022/05/26 16:40:33;;;;;;;;;;;;;;;;;;4992395;28;19921;-75
2022/05/26 16:42:59;;;;;;;;;;;;;;;;;;4992196;28;19922;-76
2022/05/26 16:45:25;;;;;;;;;;;;;;;;;;4993003;28;20023;-75
2022/05/26 16:47:51;;;;;;;;;;;;;;;;;;4996588;28;19922;-75
2022/05/26 16:50:17;;;;;;;;;;;;;;;;;;4996878;28;19922;-73
2022/05/26 16:52:44;;;;;;;;;;;;;;;;;;4997329;28;19922;-74
2022/05/26 16:55:10;;;;;;;;;;;;;;;;;;4996275;28;20274;-75
2022/05/26 16:57:36;;;;;;;;;;;;;;;;;;4997001;28;19933;-73
2022/05/26 17:00:02;;;;;;;;;;;;;;;;;;4995657;28;20008;-77
2022/05/26 17:02:28;;;;;;;;;;;;;;;;;;4997069;28;19922;-79
2022/05/26 17:04:54;;;;;;;;;;;;;;;;;;4996764;28;19944;-78
2022/05/26 17:07:20;;;;;;;;;;;;;;;;;;4996157;28;19922;-74
2022/05/26 17:09:46;;;;;;;;;;;;;;;;;;4996791;28;19980;-76
2022/05/26 17:12:12;;;;;;;;;;;;;;;;;;4996556;28;19989;-75
2022/05/26 17:22:54;;;;;;;;;;;;;;;;;;4993651;28;19972;-75
2022/05/26 17:25:20;;;;;;;;;;;;;;;;;;4994228;28;20024;-76
2022/05/26 17:27:46;;;;;;;;;;;;;;;;;;4995272;28;20221;-75